Time;durP1;ratioP1;P1;durP2;ratioP2;P2;SDS_P1;SDS_P2;PMS_P1;PMS_P2;Temp;Humidity;BMP_temperature;BMP_pressure;BME280_temperature;BME280_humidity;BME280_pressure;Samples;Min_cycle;Max_cycle;Signal;HPM_P1;HPM_P2
2021/07/19 00:01:55;;;;;;;12.60;3.90;;;17.70;76.60;;;;;;5011383;28;20108;-68
2021/07/19 00:04:21;;;;;;;12.15;4.22;;;17.60;76.70;;;;;;5003711;28;20042;-68
2021/07/19 00:06:47;;;;;;;11.00;4.00;;;17.60;76.70;;;;;;4993365;28;20023;-67
2021/07/19 00:09:13;;;;;;;8.00;3.38;;;17.70;77.60;;;;;;4975465;28;20057;-68
2021/07/19 00:11:39;;;;;;;10.52;3.92;;;17.70;77.10;;;;;;4994155;28;20046;-68
2021/07/19 00:14:05;;;;;;;10.60;3.63;;;17.80;77.00;;;;;;4995313;28;20038;-68
2021/07/19 00:16:31;;;;;;;10.18;4.07;;;17.70;77.20;;;;;;4993864;28;20112;-67
2021/07/19 00:18:57;;;;;;;11.35;3.60;;;17.70;77.40;;;;;;4992554;28;20076;-68
2021/07/19 00:21:23;;;;;;;13.43;3.33;;;17.70;77.60;;;;;;5003577;28;20061;-68
2021/07/19 00:23:49;;;;;;;14.48;4.28;;;17.70;77.60;;;;;;5013190;28;20065;-68
2021/07/19 00:26:15;;;;;;;12.77;4.00;;;17.60;77.70;;;;;;5012117;28;20524;-68
2021/07/19 00:28:41;;;;;;;11.18;3.83;;;17.60;77.90;;;;;;5009911;28;20488;-68
2021/07/19 00:31:06;;;;;;;14.23;3.75;;;17.60;78.10;;;;;;4995119;28;20068;-68
2021/07/19 00:33:32;;;;;;;8.60;3.35;;;17.60;78.30;;;;;;5012784;28;20068;-67
2021/07/19 00:35:58;;;;;;;16.88;4.40;;;17.60;78.40;;;;;;5012294;28;20570;-67
2021/07/19 00:38:24;;;;;;;9.93;3.33;;;17.60;78.60;;;;;;5012141;28;20464;-68
2021/07/19 00:40:50;;;;;;;14.10;3.83;;;17.60;78.60;;;;;;5012563;28;20037;-68
2021/07/19 00:43:15;;;;;;;9.32;3.45;;;17.60;78.50;;;;;;5012392;28;20030;-68
2021/07/19 00:45:41;;;;;;;10.75;3.55;;;17.70;78.50;;;;;;5012129;28;20030;-68
2021/07/19 00:48:07;;;;;;;12.40;4.20;;;17.70;78.50;;;;;;5001069;28;20030;-68
2021/07/19 00:50:37;;;;;;;14.77;3.58;;;17.70;78.40;;;;;;5009901;28;20033;-67
2021/07/19 00:53:07;;;;;;;7.82;2.97;;;17.60;78.50;;;;;;4993009;28;20030;-67
2021/07/19 00:55:35;;;;;;;10.60;3.58;;;17.60;78.60;;;;;;4999217;28;20028;-67
2021/07/19 00:58:03;;;;;;;9.55;3.10;;;17.70;78.90;;;;;;5011507;28;20029;-68
2021/07/19 01:00:29;;;;;;;13.75;3.88;;;17.70;78.70;;;;;;5012051;28;20492;-68
2021/07/19 01:02:57;;;;;;;10.82;3.33;;;17.70;78.70;;;;;;5009931;28;20050;-67
2021/07/19 01:05:24;;;;;;;15.35;4.13;;;17.70;78.80;;;;;;4994073;28;20035;-68
2021/07/19 01:07:53;;;;;;;7.25;3.40;;;17.70;78.80;;;;;;4992399;28;20106;-68
2021/07/19 01:10:19;;;;;;;15.05;3.75;;;17.70;78.80;;;;;;4992448;28;20108;-68
2021/07/19 01:12:51;;;;;;;11.18;3.22;;;17.70;78.80;;;;;;4992257;28;20456;-68
2021/07/19 01:15:17;;;;;;;14.10;4.00;;;17.70;78.90;;;;;;4991592;28;20030;-68
2021/07/19 01:17:43;;;;;;;10.02;3.65;;;17.60;78.90;;;;;;4988813;28;20029;-68
2021/07/19 01:20:10;;;;;;;11.40;3.80;;;17.70;78.70;;;;;;4992103;28;20056;-68
2021/07/19 01:23:15;;;;;;;7.72;3.10;;;17.70;78.80;;;;;;5011274;28;20033;-67
2021/07/19 01:26:04;;;;;;;8.90;3.00;;;17.70;78.80;;;;;;5010871;28;20061;-68
2021/07/19 01:28:46;;;;;;;11.30;3.50;;;17.70;78.50;;;;;;5008964;28;20120;-68
2021/07/19 01:31:45;;;;;;;11.75;3.20;;;17.70;78.70;;;;;;5011177;28;20476;-68
2021/07/19 01:34:20;;;;;;;11.57;3.38;;;17.70;78.30;;;;;;4989947;28;20077;-67
2021/07/19 01:36:50;;;;;;;10.52;3.28;;;17.70;78.30;;;;;;5011531;28;20026;-67
2021/07/19 01:39:17;;;;;;;10.27;3.60;;;17.80;78.20;;;;;;5011048;28;20030;-67
2021/07/19 01:41:43;;;;;;;12.32;4.13;;;17.70;78.00;;;;;;5011337;28;20661;-68
2021/07/19 01:44:10;;;;;;;8.45;3.17;;;17.70;78.00;;;;;;5010436;28;20038;-68
2021/07/19 01:46:36;;;;;;;18.33;3.50;;;17.70;78.30;;;;;;5009047;28;20076;-68
2021/07/19 01:49:04;;;;;;;9.10;2.90;;;17.70;78.10;;;;;;5001727;28;20022;-67
2021/07/19 01:51:30;;;;;;;8.38;2.65;;;17.70;78.10;;;;;;5002557;28;20034;-68
2021/07/19 01:53:58;;;;;;;6.85;3.15;;;17.70;77.90;;;;;;4991776;28;20046;-66
2021/07/19 01:56:25;;;;;;;10.43;3.35;;;17.70;78.20;;;;;;5005471;28;20026;-68
2021/07/19 01:58:59;;;;;;;9.23;3.30;;;17.70;78.00;;;;;;5010449;28;20033;-67
2021/07/19 02:01:26;;;;;;;12.93;3.70;;;17.70;78.00;;;;;;5010840;28;20491;-66
2021/07/19 02:03:52;;;;;;;10.30;3.17;;;17.70;78.00;;;;;;5003378;28;20035;-68
2021/07/19 02:06:19;;;;;;;9.48;2.90;;;17.70;78.10;;;;;;4990854;28;20110;-68
2021/07/19 02:08:51;;;;;;;10.95;3.35;;;17.60;78.30;;;;;;4990880;28;20497;-67
2021/07/19 02:11:22;;;;;;;9.60;3.60;;;17.70;78.30;;;;;;4991391;28;20270;-67
2021/07/19 02:13:48;;;;;;;13.52;3.78;;;17.70;78.20;;;;;;4991748;28;20064;-68
2021/07/19 02:16:15;;;;;;;8.57;3.38;;;17.70;78.40;;;;;;4988378;28;20584;-68
2021/07/19 02:18:43;;;;;;;10.70;3.22;;;17.70;78.30;;;;;;4991120;28;20041;-68
2021/07/19 02:21:10;;;;;;;12.77;4.13;;;17.70;78.20;;;;;;4999153;28;20105;-68
2021/07/19 02:23:37;;;;;;;9.30;3.33;;;17.70;78.60;;;;;;5011245;28;20109;-68
2021/07/19 02:26:04;;;;;;;7.45;3.25;;;17.70;77.90;;;;;;5010955;28;20025;-68
2021/07/19 02:28:34;;;;;;;14.57;3.78;;;17.70;77.90;;;;;;5007983;28;20057;-67
2021/07/19 02:31:04;;;;;;;11.18;3.72;;;17.70;77.80;;;;;;5011202;28;20105;-67
2021/07/19 02:33:31;;;;;;;7.03;3.25;;;17.70;77.70;;;;;;5011432;28;20140;-68
2021/07/19 02:35:57;;;;;;;9.32;3.05;;;17.70;77.60;;;;;;5010335;28;20065;-68
2021/07/19 02:38:24;;;;;;;13.27;3.70;;;17.70;77.70;;;;;;5010343;28;20527;-68
2021/07/19 02:40:52;;;;;;;13.43;3.47;;;17.60;77.40;;;;;;5010713;28;20085;-68
2021/07/19 02:43:21;;;;;;;13.95;3.15;;;17.60;77.10;;;;;;5013090;28;20496;-67
2021/07/19 02:45:50;;;;;;;11.40;3.00;;;17.60;76.70;;;;;;5014055;28;20033;-68
2021/07/19 02:48:16;;;;;;;11.50;3.75;;;17.60;76.60;;;;;;5002486;28;20080;-66
2021/07/19 02:50:44;;;;;;;9.30;3.00;;;17.60;76.40;;;;;;5011928;28;20022;-67
2021/07/19 02:53:13;;;;;;;10.82;3.92;;;17.60;75.80;;;;;;4994874;28;20045;-68
2021/07/19 02:55:40;;;;;;;9.20;3.28;;;17.60;75.90;;;;;;5002066;28;20111;-68
2021/07/19 02:58:10;;;;;;;9.30;3.53;;;17.60;75.70;;;;;;5013699;28;20483;-68
2021/07/19 03:00:36;;;;;;;6.30;2.78;;;17.60;75.40;;;;;;5014490;28;20037;-68
2021/07/19 03:03:05;;;;;;;7.60;3.28;;;17.60;75.50;;;;;;5011468;28;20068;-67
2021/07/19 03:05:35;;;;;;;11.32;3.92;;;17.60;75.30;;;;;;4994775;28;20128;-68
2021/07/19 03:08:04;;;;;;;7.25;3.33;;;17.60;75.20;;;;;;4994314;28;20486;-67
2021/07/19 03:10:31;;;;;;;7.55;3.10;;;17.60;75.30;;;;;;4994718;28;20030;-68
2021/07/19 03:13:23;;;;;;;10.38;3.80;;;17.60;75.50;;;;;;4994682;28;20053;-67
2021/07/19 03:15:54;;;;;;;6.57;2.63;;;17.60;75.90;;;;;;4993661;28;20536;-68
2021/07/19 03:18:21;;;;;;;10.95;3.65;;;17.60;75.60;;;;;;4993646;28;20088;-68
2021/07/19 03:20:49;;;;;;;8.15;3.80;;;17.60;75.60;;;;;;4999081;28;20169;-67
2021/07/19 03:23:18;;;;;;;10.05;3.60;;;17.60;75.70;;;;;;5013891;28;20034;-67
2021/07/19 03:25:45;;;;;;;10.73;3.67;;;17.60;75.50;;;;;;4995623;28;20689;-68
2021/07/19 03:28:12;;;;;;;11.52;4.43;;;17.60;75.90;;;;;;5010511;28;20566;-67
2021/07/19 03:30:40;;;;;;;8.02;3.80;;;17.60;75.10;;;;;;5013813;28;20076;-68
2021/07/19 03:33:06;;;;;;;8.52;3.38;;;17.50;75.20;;;;;;5013913;28;20036;-68
2021/07/19 03:35:36;;;;;;;9.30;4.03;;;17.50;75.20;;;;;;5013158;28;20084;-67
2021/07/19 03:38:02;;;;;;;7.18;3.65;;;17.60;75.50;;;;;;5013012;28;20030;-67
2021/07/19 03:40:28;;;;;;;9.07;3.47;;;17.60;75.60;;;;;;5013633;28;20116;-68
2021/07/19 03:42:57;;;;;;;8.82;4.53;;;17.60;75.40;;;;;;5013945;28;20057;-67
2021/07/19 03:45:25;;;;;;;8.05;4.22;;;17.70;75.60;;;;;;5013001;28;20357;-68
2021/07/19 03:47:51;;;;;;;7.72;3.70;;;17.70;74.80;;;;;;5005637;28;20389;-68
2021/07/19 03:50:17;;;;;;;8.05;3.78;;;17.70;75.10;;;;;;5011128;28;20448;-68
2021/07/19 03:52:46;;;;;;;8.27;3.53;;;17.70;75.40;;;;;;4996169;28;20031;-68
2021/07/19 03:55:15;;;;;;;11.70;5.07;;;17.70;75.70;;;;;;5011589;28;20042;-68
2021/07/19 03:57:42;;;;;;;8.80;4.38;;;17.70;75.10;;;;;;5012299;28;20072;-68
2021/07/19 04:00:16;;;;;;;10.50;4.80;;;17.70;75.40;;;;;;5013243;28;20025;-68
2021/07/19 04:02:45;;;;;;;8.48;4.40;;;17.80;75.70;;;;;;5010473;28;20108;-68
2021/07/19 04:05:14;;;;;;;9.07;4.30;;;17.80;75.20;;;;;;4996198;28;20092;-68
2021/07/19 04:07:42;;;;;;;8.18;4.70;;;17.70;75.10;;;;;;4992432;28;20035;-68
2021/07/19 04:10:11;;;;;;;7.03;3.90;;;17.70;75.40;;;;;;4993275;28;20492;-66
2021/07/19 04:12:40;;;;;;;10.02;4.22;;;17.70;75.50;;;;;;4993553;28;20042;-67
2021/07/19 04:15:06;;;;;;;9.68;5.05;;;17.80;75.40;;;;;;4992888;28;20031;-68
2021/07/19 04:17:32;;;;;;;6.45;3.97;;;17.70;75.10;;;;;;4972375;28;20550;-68
2021/07/19 04:20:01;;;;;;;6.90;4.18;;;17.70;75.20;;;;;;4993580;28;20034;-67
2021/07/19 04:22:27;;;;;;;10.90;5.00;;;17.80;75.60;;;;;;5011247;28;20640;-68
2021/07/19 04:24:53;;;;;;;10.05;4.68;;;17.80;75.30;;;;;;5012356;28;20044;-67
2021/07/19 04:27:19;;;;;;;8.55;4.40;;;17.80;75.30;;;;;;5011376;28;20427;-65
2021/07/19 04:29:52;;;;;;;7.82;4.43;;;17.80;75.10;;;;;;5011351;28;20534;-66
2021/07/19 04:32:19;;;;;;;9.13;4.78;;;17.80;75.10;;;;;;5012636;28;20025;-68
2021/07/19 04:34:46;;;;;;;9.45;4.40;;;17.80;74.70;;;;;;5012226;28;20049;-67
2021/07/19 04:37:12;;;;;;;9.18;4.00;;;17.70;75.10;;;;;;5011965;28;20088;-66
2021/07/19 04:39:38;;;;;;;9.10;4.30;;;17.70;75.30;;;;;;5011909;28;20037;-67
2021/07/19 04:42:06;;;;;;;12.32;4.38;;;17.70;75.40;;;;;;5012470;28;20026;-67
2021/07/19 04:44:32;;;;;;;9.43;4.20;;;17.70;75.50;;;;;;5012066;28;20472;-67
2021/07/19 04:46:58;;;;;;;6.75;3.90;;;17.70;75.50;;;;;;5009595;28;20105;-68
2021/07/19 04:49:24;;;;;;;8.07;3.80;;;17.70;75.60;;;;;;4999034;28;20098;-67
2021/07/19 04:51:50;;;;;;;11.00;5.25;;;17.80;75.90;;;;;;5004399;28;20056;-67
2021/07/19 04:54:28;;;;;;;8.52;4.05;;;17.80;75.00;;;;;;5012137;28;20543;-68
2021/07/19 04:56:58;;;;;;;9.38;4.72;;;17.80;75.30;;;;;;4994293;28;20568;-67
2021/07/19 04:59:27;;;;;;;6.85;4.25;;;17.80;75.20;;;;;;4992518;28;20091;-67
2021/07/19 05:01:55;;;;;;;8.48;4.45;;;17.80;75.60;;;;;;4989920;28;20053;-68
2021/07/19 05:04:25;;;;;;;8.05;3.97;;;17.80;75.30;;;;;;5001602;28;20080;-68
2021/07/19 05:06:52;;;;;;;12.68;4.80;;;17.80;75.30;;;;;;5012145;28;20026;-68
2021/07/19 05:09:19;;;;;;;7.13;3.97;;;17.90;75.50;;;;;;5011759;28;20026;-68
2021/07/19 05:11:47;;;;;;;9.93;4.85;;;17.90;75.50;;;;;;5012266;28;20058;-68
2021/07/19 05:14:13;;;;;;;10.35;4.30;;;17.90;75.20;;;;;;5011996;28;20044;-67
2021/07/19 05:16:40;;;;;;;8.10;5.07;;;17.90;75.50;;;;;;5008868;28;20465;-68
2021/07/19 05:19:06;;;;;;;8.32;4.57;;;17.90;75.50;;;;;;5011112;28;20139;-68
2021/07/19 05:21:36;;;;;;;9.20;4.68;;;17.90;75.10;;;;;;5011499;28;20026;-67
2021/07/19 05:24:02;;;;;;;8.75;4.40;;;17.90;75.50;;;;;;5010604;28;20723;-67
2021/07/19 05:26:28;;;;;;;9.10;4.53;;;17.90;75.30;;;;;;5011362;28;20041;-67
2021/07/19 05:28:56;;;;;;;6.75;4.13;;;17.90;75.40;;;;;;5007957;28;20389;-67
2021/07/19 05:31:23;;;;;;;8.90;4.75;;;17.90;75.10;;;;;;4993518;28;20045;-67
2021/07/19 05:33:49;;;;;;;9.27;4.90;;;17.90;75.30;;;;;;5010805;28;20396;-67
2021/07/19 05:36:14;;;;;;;10.32;4.72;;;17.90;75.10;;;;;;5011175;28;20030;-67
2021/07/19 05:38:41;;;;;;;11.20;5.13;;;18.00;75.50;;;;;;5010593;28;20026;-67
2021/07/19 05:41:08;;;;;;;7.82;4.45;;;18.00;75.00;;;;;;5011141;28;20056;-67
2021/07/19 05:43:35;;;;;;;11.95;5.25;;;18.10;74.80;;;;;;5011019;28;20364;-67
2021/07/19 05:46:00;;;;;;;8.60;4.43;;;18.10;74.80;;;;;;5011143;28;20457;-67
2021/07/19 05:48:26;;;;;;;7.43;3.72;;;18.10;74.90;;;;;;4999143;28;20133;-67
2021/07/19 05:50:52;;;;;;;6.53;4.10;;;18.10;74.90;;;;;;5007285;28;20026;-67
2021/07/19 05:53:18;;;;;;;7.32;4.32;;;18.10;74.80;;;;;;4991386;28;20042;-67
2021/07/19 05:55:44;;;;;;;12.18;5.18;;;18.10;75.00;;;;;;4999261;28;20022;-67
2021/07/19 05:58:09;;;;;;;8.02;5.13;;;18.00;75.10;;;;;;4992516;28;20045;-67
2021/07/19 06:00:35;;;;;;;10.48;4.93;;;18.00;75.80;;;;;;5010823;28;20037;-67
2021/07/19 06:03:01;;;;;;;14.05;4.82;;;18.00;75.80;;;;;;5008162;28;20404;-67
2021/07/19 06:08:17;;;;;;;9.38;4.78;;;18.10;75.40;;;;;;4990542;28;20045;-67
2021/07/19 06:10:43;;;;;;;8.00;4.47;;;18.10;75.30;;;;;;4990875;28;20388;-67
2021/07/19 06:13:15;;;;;;;7.60;5.03;;;18.20;75.40;;;;;;4991391;28;20042;-67
2021/07/19 06:15:40;;;;;;;10.57;5.10;;;18.30;75.30;;;;;;4990468;28;20058;-67
2021/07/19 06:18:06;;;;;;;7.85;4.57;;;18.30;75.40;;;;;;4989887;28;20108;-68
2021/07/19 06:20:32;;;;;;;8.20;4.28;;;18.30;75.30;;;;;;4997683;28;20026;-67
2021/07/19 06:23:02;;;;;;;7.28;4.38;;;18.30;74.70;;;;;;5014573;28;20033;-67
2021/07/19 06:25:33;;;;;;;8.07;4.10;;;18.40;74.60;;;;;;5014088;28;20026;-67
2021/07/19 06:28:01;;;;;;;9.50;5.05;;;18.40;74.70;;;;;;5011742;28;20240;-67
2021/07/19 06:30:27;;;;;;;9.98;4.65;;;18.40;74.10;;;;;;5014627;28;20022;-67
2021/07/19 06:32:54;;;;;;;8.35;4.20;;;18.40;74.10;;;;;;5014400;28;20053;-67
2021/07/19 06:35:20;;;;;;;8.63;4.80;;;18.40;74.10;;;;;;5013861;28;20033;-68
2021/07/19 06:37:46;;;;;;;8.65;4.90;;;18.50;74.30;;;;;;5013664;28;20025;-67
2021/07/19 06:40:13;;;;;;;6.80;4.57;;;18.60;73.90;;;;;;5014353;28;20163;-67
2021/07/19 06:42:38;;;;;;;6.85;4.10;;;18.60;72.50;;;;;;5014420;28;20084;-67
2021/07/19 06:45:09;;;;;;;6.65;4.43;;;18.70;72.90;;;;;;5013881;28;20029;-67
2021/07/19 06:47:35;;;;;;;;;;;18.70;73.00;;;;;;5011224;28;20459;-67
2021/07/19 06:50:03;;;;;;;9.05;4.72;;;18.70;72.90;;;;;;4999991;28;19910;-67
2021/07/19 06:52:29;;;;;;;8.90;5.32;;;18.70;72.50;;;;;;5011315;28;20036;-67
2021/07/19 06:54:55;;;;;;;10.07;4.57;;;18.70;71.50;;;;;;5011438;28;20034;-67
2021/07/19 06:57:20;;;;;;;7.60;4.07;;;18.60;70.90;;;;;;4993980;28;20058;-67
2021/07/19 06:59:46;;;;;;;5.78;4.07;;;18.60;71.00;;;;;;4994423;28;20065;-67
2021/07/19 07:02:12;;;;;;;7.57;3.97;;;18.60;71.20;;;;;;4991661;28;20030;-67
2021/07/19 07:04:37;;;;;;;5.15;3.90;;;18.70;71.50;;;;;;5005324;28;20026;-67
2021/07/19 07:07:04;;;;;;;6.93;4.05;;;18.80;70.80;;;;;;5013305;28;20049;-67
2021/07/19 07:09:31;;;;;;;6.53;4.13;;;18.80;69.10;;;;;;5013772;28;20091;-67
2021/07/19 07:11:57;;;;;;;6.40;3.75;;;18.80;70.40;;;;;;5013597;28;20037;-67
2021/07/19 07:14:22;;;;;;;5.88;3.58;;;18.90;70.40;;;;;;5013159;28;20384;-67
2021/07/19 07:16:48;;;;;;;9.18;4.55;;;18.90;70.30;;;;;;5010809;28;20030;-67
2021/07/19 07:19:14;;;;;;;5.13;3.67;;;18.90;68.80;;;;;;5012836;28;20034;-67
2021/07/19 07:21:39;;;;;;;6.55;4.03;;;18.90;69.30;;;;;;5001788;28;20037;-67
2021/07/19 07:24:05;;;;;;;6.95;4.07;;;19.00;68.30;;;;;;4993458;28;20511;-67
2021/07/19 07:26:31;;;;;;;5.20;3.80;;;18.90;68.60;;;;;;4993995;28;20045;-67
2021/07/19 07:28:57;;;;;;;8.05;4.47;;;19.00;68.80;;;;;;4989961;28;20493;-67
2021/07/19 07:31:27;;;;;;;7.65;3.70;;;19.00;69.30;;;;;;4994029;28;20030;-67
2021/07/19 07:33:57;;;;;;;6.18;4.15;;;19.00;69.70;;;;;;4993569;28;20120;-67
2021/07/19 07:36:24;;;;;;;7.33;4.47;;;19.00;69.00;;;;;;4993809;28;20473;-67
2021/07/19 07:38:50;;;;;;;7.53;4.10;;;18.90;69.40;;;;;;4993285;28;20034;-67
2021/07/19 07:41:16;;;;;;;6.78;3.72;;;19.00;69.10;;;;;;4993811;28;20034;-67
2021/07/19 07:43:42;;;;;;;6.35;3.30;;;18.90;67.70;;;;;;4993431;28;20528;-67
2021/07/19 07:46:08;;;;;;;5.68;3.33;;;18.90;68.40;;;;;;4993736;28;20045;-67
2021/07/19 07:48:35;;;;;;;5.45;3.55;;;19.00;68.20;;;;;;5000863;28;20481;-67
2021/07/19 07:51:02;;;;;;;6.88;4.05;;;19.00;67.70;;;;;;5007788;28;20487;-67
2021/07/19 07:53:27;;;;;;;5.80;3.58;;;19.10;67.50;;;;;;4993133;28;20030;-67
2021/07/19 07:55:53;;;;;;;5.10;3.28;;;19.10;67.80;;;;;;5003282;28;20033;-67
2021/07/19 07:58:19;;;;;;;4.68;3.30;;;19.10;67.20;;;;;;5012263;28;20384;-67
2021/07/19 08:00:45;;;;;;;5.63;3.20;;;19.20;67.20;;;;;;5012888;28;20084;-67
2021/07/19 08:03:11;;;;;;;5.40;2.90;;;19.30;67.30;;;;;;5009936;28;20092;-67
2021/07/19 08:05:37;;;;;;;5.88;3.05;;;19.30;66.50;;;;;;4973364;28;20039;-67
2021/07/19 08:08:03;;;;;;;6.78;3.97;;;19.30;66.60;;;;;;4973089;28;20363;-67
2021/07/19 08:10:28;;;;;;;5.97;3.10;;;19.40;65.70;;;;;;4974070;28;20525;-67
2021/07/19 08:12:55;;;;;;;5.03;2.72;;;19.40;65.90;;;;;;4973722;28;20117;-67
2021/07/19 08:15:21;;;;;;;6.82;2.70;;;19.50;65.40;;;;;;4973054;28;20111;-67
2021/07/19 08:17:47;;;;;;;5.45;3.00;;;19.40;64.10;;;;;;4970329;28;20035;-67
2021/07/19 08:20:14;;;;;;;7.43;3.10;;;19.40;63.70;;;;;;4973604;28;20023;-67
2021/07/19 08:22:40;;;;;;;5.53;3.33;;;19.40;63.70;;;;;;5013023;28;20384;-67
2021/07/19 08:25:06;;;;;;;4.20;2.55;;;19.30;63.60;;;;;;5012074;28;20026;-67
2021/07/19 08:27:31;;;;;;;6.80;2.75;;;19.20;64.70;;;;;;5009341;28;20420;-67
2021/07/19 08:29:57;;;;;;;6.22;2.67;;;19.10;64.80;;;;;;5012088;28;20026;-67
2021/07/19 08:32:24;;;;;;;3.95;2.47;;;19.20;65.70;;;;;;5012389;28;20113;-67
2021/07/19 08:34:49;;;;;;;4.88;3.03;;;19.30;66.20;;;;;;5011596;28;20038;-67
2021/07/19 08:37:15;;;;;;;6.60;3.20;;;19.30;65.60;;;;;;5011634;28;20037;-67
2021/07/19 08:39:43;;;;;;;5.10;2.67;;;19.50;65.10;;;;;;5011437;28;20109;-67
2021/07/19 08:42:12;;;;;;;7.40;2.47;;;19.60;64.20;;;;;;5011958;28;20121;-67
2021/07/19 08:44:39;;;;;;;3.47;2.53;;;19.60;62.80;;;;;;5011549;28;20097;-67
2021/07/19 08:47:13;;;;;;;3.70;2.20;;;19.60;63.20;;;;;;5008460;28;20018;-67
2021/07/19 08:49:40;;;;;;;4.47;2.35;;;19.70;62.80;;;;;;4995148;28;20073;-67
2021/07/19 08:52:06;;;;;;;5.88;2.92;;;19.70;62.10;;;;;;4998125;28;20472;-67
2021/07/19 08:54:34;;;;;;;4.93;2.15;;;19.70;63.50;;;;;;4991994;28;20034;-67
2021/07/19 08:57:00;;;;;;;4.32;2.15;;;19.70;62.50;;;;;;5010662;28;20037;-68
2021/07/19 08:59:26;;;;;;;4.72;2.50;;;19.80;63.10;;;;;;5011611;28;20369;-67
2021/07/19 09:01:52;;;;;;;3.50;2.15;;;19.90;62.60;;;;;;5009312;28;20487;-67
2021/07/19 09:04:19;;;;;;;4.60;2.22;;;20.00;63.30;;;;;;5002266;28;20041;-67
2021/07/19 09:06:46;;;;;;;3.60;2.08;;;20.10;62.00;;;;;;4992151;28;20077;-67
2021/07/19 09:09:12;;;;;;;5.03;2.20;;;20.00;62.20;;;;;;4991282;28;20484;-67
2021/07/19 09:11:49;;;;;;;5.45;2.42;;;20.00;62.70;;;;;;4991615;28;20568;-67
2021/07/19 09:14:14;;;;;;;3.45;1.65;;;20.10;61.70;;;;;;4991241;28;20173;-67
2021/07/19 09:16:44;;;;;;;4.25;1.80;;;20.00;60.90;;;;;;4989232;28;20516;-67
2021/07/19 09:19:22;;;;;;;4.60;2.20;;;20.10;61.60;;;;;;4991548;28;20627;-67
2021/07/19 09:21:51;;;;;;;3.75;2.10;;;20.00;60.50;;;;;;5004771;28;20034;-67
2021/07/19 09:24:19;;;;;;;5.32;2.72;;;19.90;60.40;;;;;;5010784;28;20456;-67
2021/07/19 09:26:46;;;;;;;3.58;1.92;;;19.90;60.80;;;;;;5011394;28;20040;-67
2021/07/19 09:29:14;;;;;;;4.32;1.90;;;20.00;61.60;;;;;;5008057;28;20030;-67
2021/07/19 09:31:45;;;;;;;7.57;1.80;;;20.00;61.60;;;;;;5011226;28;20403;-68
2021/07/19 09:34:14;;;;;;;4.68;1.85;;;20.00;61.00;;;;;;5010895;28;20415;-67
2021/07/19 09:36:57;;;;;;;4.45;2.05;;;20.00;62.10;;;;;;5011332;28;20026;-67
2021/07/19 09:39:23;;;;;;;5.32;2.20;;;20.00;61.40;;;;;;5010418;28;20488;-67
2021/07/19 09:41:49;;;;;;;5.97;2.65;;;19.90;61.50;;;;;;5011309;28;20029;-67
2021/07/19 09:44:15;;;;;;;4.47;2.13;;;19.80;61.40;;;;;;5010636;28;20030;-67
2021/07/19 09:46:41;;;;;;;4.10;1.85;;;19.70;62.00;;;;;;5009365;28;20025;-67
2021/07/19 09:49:06;;;;;;;6.25;2.60;;;19.70;61.90;;;;;;4999407;28;20445;-67
2021/07/19 09:51:35;;;;;;;3.70;2.15;;;19.70;62.50;;;;;;5000036;28;20088;-67
2021/07/19 09:54:12;;;;;;;3.70;1.55;;;19.70;63.10;;;;;;5010580;28;20073;-67
2021/07/19 09:56:39;;;;;;;7.43;2.25;;;19.80;63.00;;;;;;4994972;28;20287;-67
2021/07/19 09:59:06;;;;;;;8.52;2.13;;;19.90;63.30;;;;;;4990781;28;20428;-67
2021/07/19 10:01:37;;;;;;;4.60;1.92;;;19.90;62.20;;;;;;4989706;28;20030;-67
2021/07/19 10:04:06;;;;;;;8.32;2.28;;;19.90;62.30;;;;;;4997449;28;20038;-67
2021/07/19 10:06:32;;;;;;;3.60;2.15;;;19.90;61.80;;;;;;5010983;28;20030;-67
2021/07/19 10:08:59;;;;;;;5.03;2.05;;;20.00;63.00;;;;;;5010254;28;20022;-67
2021/07/19 10:11:31;;;;;;;2.75;1.92;;;20.10;62.00;;;;;;5010828;28;20037;-68
2021/07/19 10:13:58;;;;;;;3.75;1.80;;;20.20;61.90;;;;;;5010524;28;20054;-67
2021/07/19 10:16:28;;;;;;;4.13;2.28;;;20.20;62.30;;;;;;5010792;28;20034;-68
2021/07/19 10:18:54;;;;;;;4.97;2.60;;;20.20;62.20;;;;;;5010485;28;20056;-67
2021/07/19 10:21:29;;;;;;;5.57;2.40;;;20.10;61.90;;;;;;5001979;28;20080;-67
2021/07/19 10:23:59;;;;;;;6.63;2.45;;;20.00;62.70;;;;;;4990869;28;20030;-67
2021/07/19 10:26:26;;;;;;;3.97;2.13;;;20.00;63.30;;;;;;4991241;28;20038;-67
2021/07/19 10:28:52;;;;;;;4.05;1.70;;;20.00;63.50;;;;;;4987863;28;20496;-67
2021/07/19 10:31:18;;;;;;;5.05;2.20;;;20.00;63.10;;;;;;4990961;28;20077;-67
2021/07/19 10:33:46;;;;;;;2.35;1.70;;;20.00;63.60;;;;;;4990756;28;20042;-67
2021/07/19 10:36:13;;;;;;;4.72;1.83;;;20.10;62.50;;;;;;4990852;28;20039;-67
2021/07/19 10:38:40;;;;;;;7.10;2.88;;;20.20;62.40;;;;;;4990548;28;20030;-67
2021/07/19 10:41:07;;;;;;;6.35;2.33;;;20.30;62.60;;;;;;4991511;28;20038;-67
2021/07/19 10:43:33;;;;;;;6.65;2.80;;;20.40;61.10;;;;;;4990400;28;20061;-67
2021/07/19 10:46:11;;;;;;;5.40;2.40;;;20.50;61.70;;;;;;4990999;28;20461;-67
2021/07/19 10:48:38;;;;;;;6.95;2.33;;;20.50;61.20;;;;;;4998031;28;20496;-67
2021/07/19 10:51:20;;;;;;;3.30;2.03;;;20.60;61.60;;;;;;4996680;28;20113;-67
2021/07/19 10:53:46;;;;;;;5.30;2.20;;;20.60;61.50;;;;;;5010325;28;20105;-67
2021/07/19 10:56:13;;;;;;;5.25;2.63;;;20.70;60.90;;;;;;4997718;28;20493;-67
2021/07/19 10:58:48;;;;;;;5.03;2.38;;;20.80;61.20;;;;;;4990393;28;20528;-67
2021/07/19 11:01:29;;;;;;;5.15;2.30;;;20.80;61.00;;;;;;4991143;28;20085;-67
2021/07/19 11:03:58;;;;;;;2.83;2.03;;;20.80;61.30;;;;;;4996356;28;20054;-67
2021/07/19 11:06:38;;;;;;;3.80;2.00;;;20.90;61.80;;;;;;5013696;28;20101;-67
2021/07/19 11:09:09;;;;;;;3.75;2.08;;;21.00;61.60;;;;;;5013439;28;20034;-67
2021/07/19 11:11:36;;;;;;;;;;;21.10;62.10;;;;;;5013982;28;20030;-67
2021/07/19 11:14:05;;;;;;;5.47;2.30;;;21.10;61.90;;;;;;5013304;28;19905;-67
2021/07/19 11:16:46;;;;;;;3.60;1.80;;;21.00;61.30;;;;;;5013724;28;20079;-67
2021/07/19 11:19:14;;;;;;;4.75;2.15;;;20.70;62.30;;;;;;5012912;28;20052;-67
2021/07/19 11:21:41;;;;;;;4.25;2.10;;;20.60;63.30;;;;;;5001877;28;20045;-67
2021/07/19 11:24:19;;;;;;;4.07;1.95;;;20.50;63.80;;;;;;4993543;28;20120;-67
2021/07/19 11:26:57;;;;;;;5.40;2.45;;;20.50;64.40;;;;;;4993975;28;20046;-67
2021/07/19 11:29:34;;;;;;;8.45;3.08;;;20.40;64.80;;;;;;4990508;28;20034;-67
2021/07/19 11:32:10;;;;;;;23.30;9.18;;;20.20;65.10;;;;;;4993951;28;20026;-67
2021/07/19 11:34:36;;;;;;;29.38;9.35;;;20.10;65.50;;;;;;4993306;28;20041;-67
2021/07/19 11:37:03;;;;;;;331.33;117.53;;;19.90;66.70;;;;;;4993257;28;20045;-67
2021/07/19 11:39:41;;;;;;;183.95;65.57;;;19.90;68.10;;;;;;4993618;28;20398;-67
2021/07/19 11:42:07;;;;;;;85.10;29.38;;;19.90;68.00;;;;;;4993661;28;20046;-67
2021/07/19 11:44:34;;;;;;;31.13;14.57;;;20.00;67.60;;;;;;4993306;28;20034;-67
2021/07/19 11:47:03;;;;;;;26.00;10.93;;;19.90;67.40;;;;;;4995921;28;20037;-67
2021/07/19 11:49:29;;;;;;;9.55;4.55;;;20.00;67.40;;;;;;5001898;28;20074;-67
2021/07/19 11:51:56;;;;;;;9.15;3.30;;;20.00;67.20;;;;;;5006002;28;20057;-67
2021/07/19 11:54:22;;;;;;;6.30;2.95;;;20.00;66.60;;;;;;5012423;28;20101;-67
2021/07/19 11:56:56;;;;;;;10.73;3.00;;;20.10;66.20;;;;;;5012724;28;20113;-67
2021/07/19 11:59:26;;;;;;;5.68;2.60;;;20.20;65.30;;;;;;5012135;28;20030;-67
2021/07/19 12:02:00;;;;;;;6.40;2.60;;;20.40;65.60;;;;;;5010380;28;20030;-67
2021/07/19 12:04:40;;;;;;;3.47;2.08;;;20.60;65.10;;;;;;5002160;28;20062;-68
2021/07/19 12:07:07;;;;;;;5.40;2.70;;;20.70;63.70;;;;;;4992045;28;20030;-67
2021/07/19 12:09:33;;;;;;;6.32;3.03;;;20.90;63.40;;;;;;4993004;28;20061;-67
2021/07/19 12:12:01;;;;;;;5.22;2.50;;;20.90;62.10;;;;;;4992994;28;20379;-67
2021/07/19 12:14:27;;;;;;;3.53;2.08;;;20.90;62.30;;;;;;4992584;28;20109;-67
2021/07/19 12:16:53;;;;;;;4.10;2.00;;;21.00;61.60;;;;;;4993015;28;20038;-67
2021/07/19 12:19:20;;;;;;;5.45;2.45;;;21.10;61.90;;;;;;4992400;28;20085;-67
2021/07/19 12:21:52;;;;;;;4.95;2.33;;;21.20;61.30;;;;;;5005437;28;20081;-67
2021/07/19 12:24:20;;;;;;;4.60;2.58;;;21.30;59.90;;;;;;5011726;28;20037;-67
2021/07/19 12:26:55;;;;;;;7.90;2.38;;;21.30;59.80;;;;;;5012671;28;20044;-67
2021/07/19 12:29:36;;;;;;;4.70;2.00;;;21.20;59.80;;;;;;5009528;28;20026;-67
2021/07/19 12:32:07;;;;;;;5.93;2.53;;;21.50;60.30;;;;;;5011858;28;20057;-67
2021/07/19 12:34:35;;;;;;;6.63;3.47;;;21.70;58.90;;;;;;5011809;28;20488;-67
2021/07/19 12:37:04;;;;;;;5.82;2.83;;;21.70;58.50;;;;;;5011675;28;20096;-67
2021/07/19 12:39:36;;;;;;;4.38;2.55;;;21.90;59.30;;;;;;5011746;28;20472;-68
2021/07/19 12:42:10;;;;;;;5.68;2.13;;;21.80;59.10;;;;;;5012128;28;20057;-67
2021/07/19 12:44:37;;;;;;;2.78;2.15;;;21.90;59.60;;;;;;5011358;28;20037;-67
2021/07/19 12:47:03;;;;;;;3.85;2.22;;;22.10;59.20;;;;;;5007474;28;20026;-67
2021/07/19 12:49:38;;;;;;;5.60;2.22;;;22.10;58.90;;;;;;5000729;28;20109;-68
2021/07/19 12:52:14;;;;;;;7.03;2.10;;;22.10;58.70;;;;;;5010839;28;20092;-67
2021/07/19 12:54:40;;;;;;;4.07;2.42;;;22.10;59.10;;;;;;5011451;28;20510;-67